Tiempo atmosférico en la estación meteorológica de Asturias Aeropuerto, Asturias (127 m.)



Fecha
DESCASC
Temp. máxima en grados centígrados (hora)
DESCASC
Temp. mínima en grados centígrados (hora)
DESCASC
Temp. media en grados centígrados
DESCASC
Racha de viento máxima en m/sg (hora)
DESCASC
Velocidad máxima media en intervalos de 10 minutos(hora)
DESCASC
Precipitaciones diarias en mm
DESCASC
Precipitaciones de 00:00 a 06:00 en mm
DESCASC
Precipitaciones de 06:00 a 12:00 en mm
DESCASC
Precipitaciones de 12:00 a 18:00 en mm
DESCASC
Precipitaciones de 18:00 a 24:00 en mm
DESCASC
13-10-2019 19.3 (11:10) 13.9 (05:20) 16.6 12.78 (12:00) 8.33 (12:10) 14.5 0 0 3.7 10.8
12-10-2019 21.7 (14:10) 14.1 (09:10) 17.9 7.78 (18:50) 5.83 (19:10) 0 0 0 0 0
11-10-2019 18.9 (16:50) 11.1 (08:40) 15 8.33 (07:40) 4.72 (02:10) 0 0 0 0 0
10-10-2019 19.4 (15:20) 10.5 (00:00) 14.9 7.22 (09:50) 5.28 (10:10) 0 0 0 0 0
09-10-2019 19.1 (13:10) 12.1 (00:00) 15.6 10.28 (15:00) 6.39 (15:00) 0 0 0 0 0
08-10-2019 21.6 (12:00) 13.6 (00:00) 17.6 11.67 (15:00) 7.22 (12:30) 3.3 0 0 1.8 1.5
07-10-2019 23 (19:00) 12.5 (00:00) 17.8 8.89 (07:10) 5.28 (06:30) 0 0 0 0 0
06-10-2019 20.3 (14:50) 14.2 (00:00) 17.2 7.22 (04:00) 5 (13:50) 0 0 0 0 0
05-10-2019 18.6 (16:40) 14.3 (00:00) 16.5 7.22 (09:40) 4.17 (12:00) 0 0 0 0 0
04-10-2019 18.4 (13:40) 15 (00:00) 16.7 9.17 (04:20) 6.39 (02:10) 2.4 1 1.4 0 0
03-10-2019 22.8 (15:10) 12.5 (00:00) 17.6 6.67 (09:50) 4.44 (10:30) 0.3 0 0 0 0.3
02-10-2019 20.1 (14:20) 13.5 (00:00) 16.8 13.33 (06:10) 8.33 (03:00) 0.2 0.1 0.1 0 0
01-10-2019 21.7 (11:20) 16.1 (00:00) 18.9 16.94 (20:20) 11.39 (20:10) 0 0 0 0 0
30-09-2019 25.5 (13:30) 14.7 (00:00) 20.1 8.33 (07:10) 4.17 (10:10) 0 0 0 0 0
29-09-2019 26.8 (14:40) 12.8 (00:00) 19.8 11.67 (14:50) 6.67 (14:20) 0 0 0 0 0
28-09-2019 19.5 (15:50) 12.2 (00:00) 15.8 6.11 (09:40) 3.61 (23:30) 0 0 0 0 0
27-09-2019 20 (11:40) 15.1 (00:00) 17.6 10.83 (15:20) 7.5 (15:20) 0 0 0 0 0
26-09-2019 21.9 (17:20) 12.1 (00:00) 17 6.67 (01:00) 4.72 (10:10) 0 0 0 0 0
25-09-2019 20.4 (11:10) 14.8 (00:00) 17.6 10.28 (09:40) 6.39 (16:40) 0 0 0 0 0
24-09-2019 22 (08:00) 15.3 (00:00) 18.7 14.44 (08:40) 10 (08:50) 0.4 0.3 0.1 0 0
23-09-2019 20.3 (13:10) 13.3 (00:00) 16.8 8.89 (07:10) 5 (18:40) 2.2 0 0 1.4 0.8
22-09-2019 23.2 (14:30) 13.2 (00:00) 18.2 14.44 (01:00) 8.06 (01:00) 0 0 0 0 0
21-09-2019 26.7 (14:00) 14.9 (00:00) 20.8 12.5 (21:00) 7.78 (21:00) 3.9 0 0.1 0.1 3.7
20-09-2019 20.3 (13:00) 10.5 (00:00) 15.4 10.28 (20:10) 7.5 (21:40) 0 0 0 0 0
19-09-2019 22.6 (14:30) 14.7 (00:00) 18.7 9.72 (16:10) 6.67 (16:40) 0 0 0 0 0
18-09-2019 22.8 (14:50) 16.3 (00:00) 19.5 10.28 (17:30) 6.67 (17:40) 0 0 0 0 0
17-09-2019 23.8 (12:30) 17.4 (00:00) 20.6 6.11 (13:50) 3.61 (00:30) 0.2 0 0 0 0.2
16-09-2019 21.9 (12:30) 16.8 (00:00) 19.3 5 (23:59) 3.61 (23:59) 0 0 0 0 0

Gráficas

Temp. máximas Temp. mínimas Temp. medias Precipitaciones Rachas de viento máximas Velocidades máximas media en intervalos de 10 minutos

Datos horarios

Fecha y hora oficial Temperatura (ºC) Velocidad del viento (km/h) Dirección del viento Racha (km/h) Dirección de racha Precipitación (mm) Presión (hPa) Tendencia (hPa) Humedad (%)
2019-10-15 23:00:00 13.2 8 Sudoeste 13 Sudoeste 0 999.2 -1.3 79
2019-10-15 22:00:00 12.9 7 Sudoeste 15 Este 0 999.4 -0.8 84
2019-10-15 21:00:00 13.1 5 Nordeste 24 Sur 0.3 1000.1 0.1 83
2019-10-15 20:00:00 14.3 13 Sudoeste 39 Sudoeste 0.3 1000.5 0.4 72
2019-10-15 19:00:00 17.1 25 Sudoeste 48 Sudoeste 0 1000.2 0.1 54
2019-10-15 18:00:00 17.8 14 Oeste 37 Oeste 0 1000 -0.6 51
2019-10-15 17:00:00 18.5 23 Oeste 46 Oeste 0 1000.1 -1 49
2019-10-15 16:00:00 19.1 19 Oeste 33 Oeste 0 1000.1 -1.1 47
2019-10-15 15:00:00 18.4 21 Oeste 41 Oeste 0 1000.6 -1 48
2019-10-15 14:00:00 18.7 31 Sudoeste 45 Sudoeste 0 1001.1 -0.3 47
2019-10-15 13:00:00 19.1 27 Oeste 39 Oeste 0 1001.2 0 45
2019-10-15 12:00:00 17 23 Sudoeste 45 Sudoeste 0 1001.6 0.6 49
2019-10-15 11:00:00 15.9 23 Sudoeste 37 Sudoeste 0 1001.4 0.4 52
2019-10-15 10:00:00 14.2 21 Sudoeste 37 Sur 0 1001.2 0.4 56
2019-10-15 09:00:00 12.6 24 Sudoeste 37 Sudoeste 0 1001 0.3 60
2019-10-15 08:00:00 12.8 22 Sudoeste 41 Oeste 0 1001 0.4 61
2019-10-15 07:00:00 12.5 24 Sudoeste 39 Sudoeste 0 1000.8 0.3 63
2019-10-15 06:00:00 12.3 22 Sudoeste 33 Sudoeste 0 1000.7 0.3 62
2019-10-15 05:00:00 11.9 23 Sudoeste 35 Sudoeste 0 1000.6 0.5 64
2019-10-15 04:00:00 12 22 Sudoeste 33 Sudoeste 0 1000.5 0.7 64
2019-10-15 03:00:00 12.1 20 Sudoeste 33 Sudoeste 0 1000.4 0.7 63
2019-10-15 02:00:00 11.5 22 Sudoeste 33 Sudoeste 0 1000.1 1 64
2019-10-15 01:00:00 11.1 21 Sudoeste 35 Sudoeste 0 999.8 1.3 66
2019-10-15 00:00:00 11.2 20 Sudoeste 35 Sudoeste 0 999.7 1.7 68
2019-10-14 23:00:00 11.1 20 Sudoeste 35 Sudoeste 0 999.1 1.8 67
2019-10-14 22:00:00 11.8 24 Oeste 41 Oeste 0 998.5 1.8 63
2019-10-14 21:00:00 11.6 18 Oeste 28 Oeste 0 998 2.9 67
2019-10-14 20:00:00 11.8 18 Sudoeste 30 Oeste 0 997.3 2.8 73
2019-10-14 19:00:00 12.4 21 Oeste 50 Oeste 0 996.7 2.8 73
2019-10-14 18:00:00 15.5 29 Oeste 45 Oeste 0 995.1 2.3 58
2019-10-14 17:00:00 14.5 18 Oeste 37 Oeste 0 994.5 1.9 65
2019-10-14 16:00:00 14.4 23 Oeste 52 Oeste 0 993.9 1.6 60
2019-10-14 15:00:00 15.4 18 Oeste 32 Oeste 0 992.8 0.3 64
2019-10-14 14:00:00 14.8 16 Sudoeste 32 Sudoeste 0.1 992.6 1 67
2019-10-14 13:00:00 14.3 10 Sur 26 Oeste 0.3 992.3 1.8 73
2019-10-14 12:00:00 13.3 5 Noroeste 17 Sur 0.5 992.5 2.5 84
2019-10-14 11:00:00 13 12 Sur 13 Sur 0 991.6 1.3 87
2019-10-14 10:00:00 12.5 9 Sudeste 24 Sudoeste 0 990.5 -0.7 82
2019-10-14 09:00:00 13.3 14 Sudoeste 42 Sudoeste 0 990 -1.3 71
2019-10-14 08:00:00 13.6 23 Sudoeste 37 Sudoeste 0 990.3 -2.1 71
2019-10-14 07:00:00 13.4 19 Sudoeste 33 Sudoeste 0.1 991.2 -1.2 76
2019-10-14 06:00:00 12.7 15 Sudoeste 22 Sudoeste 0 991.3 -1.6 88
2019-10-14 05:00:00 12.5 13 Sudoeste 39 Noroeste 0.8 992.4 -0.8 91
2019-10-14 04:00:00 13.1 23 Oeste 37 Oeste 0.1 992.4 -1.2 85
2019-10-14 03:00:00 13.7 30 Oeste 42 Oeste 0.1 992.9 -0.9 93
2019-10-14 02:00:00 13.7 15 Noroeste 42 Oeste 0 993.2 -0.9 100
2019-10-14 01:00:00 14.5 14 Oeste 22 Oeste 0 993.6 -0.9 100
2019-10-14 00:00:00 14.7 5 Sur 13 Sudeste 0 993.8 -1.1 100
2019-10-13 23:00:00 14.6 11 Sudeste 18 Sudeste 0 994.1 -1 100
2019-10-13 22:00:00 14.4 7 Sudeste 11 Sudeste 0 994.5 -1 100
2019-10-13 21:00:00 14.3 2 Este 11 Este 0 994.9 -0.8 100
2019-10-13 20:00:00 14.3 4 Este 9 Este 5.8 995.1 -0.7 100
2019-10-13 19:00:00 14.7 5 Norte 11 Este 5 995.5 -0.1 100
2019-10-13 18:00:00 15.2 5 Nordeste 9 Nordeste 3.5 995.7 -0.3 99
2019-10-13 17:00:00 15.9 4 Noroeste 13 Noroeste 0.1 995.8 -0.5 89
2019-10-13 16:00:00 16.3 9 Noroeste 18 Noroeste 0 995.6 -0.6 91
2019-10-13 15:00:00 16.5 12 Noroeste 28 Oeste 0 996 0.4 90
2019-10-13 14:00:00 16.3 14 Noroeste 26 Noroeste 0 996.3 2.2 92
2019-10-13 13:00:00 16.1 16 Noroeste 42 Oeste 0.1 996.2 3.7 93
2019-10-13 12:00:00 16.8 28 Oeste 46 Noroeste 0 995.6 4 89
2019-10-13 11:00:00 18.2 16 Oeste 30 Oeste 0 994.1 3.1 68
2019-10-13 10:00:00 16.9 7 Sudoeste 18 Sur 0 992.5 1.7 78
2019-10-13 09:00:00 15.9 12 Sur 21 Sudoeste 0 991.6 1.2 82
2019-10-13 08:00:00 15.5 13 Sur 22 Sur 0 991 0.6 83
2019-10-13 07:00:00 14.9 15 Sudoeste 22 Sur 0 990.8 -0.4 88
2019-10-13 06:00:00 14.6 12 Sudoeste 18 Sur 0 990.4 -1.2 93
2019-10-13 05:00:00 14.2 6 Sur 17 Sudoeste 0 990.4 -1.9 93
2019-10-13 04:00:00 14.7 12 Sudoeste 21 Sur 0 991.2 -1.5 93
2019-10-13 03:00:00 15.3 11 Sudoeste 21 Sudoeste 0 991.6 -1.6 90
2019-10-13 02:00:00 15 11 Sudoeste 18 Sudoeste 0 992.3 -1.1 93
2019-10-13 01:00:00 15.3 9 Sur 13 Sur 0 992.7 -1.1 97
2019-10-13 00:00:00 15.7 8 Sudeste 13 Sudeste 0 993.2 -0.8 98
2019-10-12 23:00:00 15.2 8 Sudeste 17 Sudeste 0 993.4 -0.4 97
2019-10-12 22:00:00 16.1 3 Sudeste 18 Sudeste 0 993.8 0.4 94
2019-10-12 21:00:00 17.1 14 Sudeste 21 Este 0 994 0.1 88
2019-10-12 20:00:00 17.5 12 Este 28 Sudeste 0 993.8 -0.2 80
2019-10-12 19:00:00 18.9 17 Este 28 Sudeste 0 993.4 -0.7 71
2019-10-12 18:00:00 20.1 13 Este 24 Sudeste 0 993.9 -0.8 67
2019-10-12 17:00:00 20.4 14 Este 26 Este 0 994 -1.4 65
2019-10-12 16:00:00 20.6 14 Nordeste 22 Nordeste 0 994.1 -2 63
2019-10-12 15:00:00 20.4 12 Nordeste 21 Este 0 994.7 -2.2 66
2019-10-12 14:00:00 21.4 9 Este 18 Sudeste 0 995.4 -1.7 63
2019-10-12 13:00:00 20.8 8 Sudeste 17 Sudeste 0 996.1 -0.7 66
2019-10-12 12:00:00 19.5 5 Sudeste 11 Sur 0 996.9 0.5 70
2019-10-12 11:00:00 17.1 6 Sur 13 Sur 0 997.1 0.8 83
2019-10-12 10:00:00 15.1 2 Sudoeste 9 Sur 0 996.8 0.4 99
2019-10-12 09:00:00 14.3 8 Oeste 11 Sudoeste 0 996.4 -0.3 97
2019-10-12 08:00:00 15 7 Sudeste 15 Sudeste 0 996.3 -0.4 95
2019-10-12 07:00:00 15.4 5 Sudoeste 9 Sur 0 996.4 -0.9 92
2019-10-12 06:00:00 15.6 4 Sudeste 8 Sudeste 0 996.7 -1.2 92
2019-10-12 05:00:00 15.7 2 Sudoeste 9 Sudeste 0 996.7 -1.8 91
2019-10-12 04:00:00 15.8 5 Sudeste 11 Sur 0 997.3 -1.7 91
2019-10-12 03:00:00 15.9 6 Sudeste 17 Sur 0 997.9 -1.7 89
2019-10-12 02:00:00 16.1 9 Sur 13 Sur 0 998.5 -1.4 88
2019-10-12 01:00:00 16.3 7 Sudeste 13 Sudeste 0 999 -0.8 87
2019-10-12 00:00:00 16.4 0 Calma 5 Sur 0 999.6 -0.3 88
2019-10-11 23:00:00 16.5 4 Sudoeste 8 Sudoeste 0 999.9 0.1 88
2019-10-11 22:00:00 16.6 5 Oeste 11 Oeste 0 999.8 0.2 89
2019-10-11 21:00:00 16.6 5 Noroeste 11 Noroeste 0 999.9 0.4 87
2019-10-11 20:00:00 16.3 6 Noroeste 13 Oeste 0 999.8 0.2 90
2019-10-11 19:00:00 17.1 8 Noroeste 13 Noroeste 0 999.6 -0.3 85
2019-10-11 18:00:00 18 4 Norte 15 Noroeste 0 999.5 -0.8 79
2019-10-11 17:00:00 18.4 8 Norte 17 Noroeste 0 999.6 -1.5 78
2019-10-11 16:00:00 18.2 9 Noroeste 18 Noroeste 0 999.9 -1.7 78
2019-10-11 15:00:00 18.4 12 Noroeste 21 Noroeste 0 1000.3 -1.6 77
2019-10-11 14:00:00 18.6 14 Noroeste 21 Noroeste 0 1001.1 -0.9 79
2019-10-11 13:00:00 18 11 Noroeste 17 Noroeste 0 1001.6 -0.1 71
2019-10-11 12:00:00 18.2 9 Noroeste 21 Sudoeste 0 1001.9 0.5 62
2019-10-11 11:00:00 16.1 9 Sudoeste 26 Sudoeste 0 1002 0.9 67
2019-10-11 10:00:00 13.6 13 Sudoeste 22 Sudoeste 0 1001.7 0.5 74
2019-10-11 09:00:00 11.4 13 Sudoeste 22 Sudoeste 0 1001.4 -0.1 88
2019-10-11 08:00:00 12.1 17 Sudoeste 30 Sudoeste 0 1001.1 -0.4 84
2019-10-11 07:00:00 11.4 12 Sudoeste 21 Sudoeste 0 1001.2 -0.9 90
2019-10-11 06:00:00 11.9 10 Sudoeste 24 Sudoeste 0 1001.5 -1.1 87
2019-10-11 05:00:00 12 15 Sudoeste 26 Sudoeste 0 1001.5 -1.6 90
2019-10-11 04:00:00 12.2 16 Sudoeste 24 Sudoeste 0 1002.1 -1.9 91
2019-10-11 03:00:00 12.1 14 Sudoeste 24 Sudoeste 0 1002.6 -1.6 93
2019-10-11 02:00:00 12.1 16 Sudoeste 24 Sur 0 1003.1 -1.3 93
2019-10-11 01:00:00 12.3 10 Sudoeste 15 Sudoeste 0 1004 -0.5 91
2019-10-11 00:00:00 12.5 5 Sur 9 Sur 0 1004.2 -0.5 87
2019-10-10 23:00:00 13 5 Sur 13 Sur 0 1004.4 -0.3 85
2019-10-10 22:00:00 13.1 12 Sur 21 Sudeste 0 1004.5 -0.3 90
2019-10-10 21:00:00 13.4 15 Sudeste 24 Este 0 1004.7 -0.4 87
2019-10-10 20:00:00 15.5 13 Este 21 Este 0 1004.7 -0.8 74
2019-10-10 19:00:00 17.5 10 Este 22 Este 0 1004.8 -1.4 65
2019-10-10 18:00:00 18.3 11 Este 22 Este 0 1005.1 -1.6 64
2019-10-10 17:00:00 18.6 11 Este 22 Este 0 1005.5 -1.7 62
2019-10-10 16:00:00 18.8 12 Nordeste 21 Nordeste 0 1006.2 -1.5 60
2019-10-10 15:00:00 18.7 9 Nordeste 22 Nordeste 0 1006.7 -1.3 62
2019-10-10 14:00:00 18.9 10 Norte 15 Norte 0 1007.2 -1.2 60
2019-10-10 13:00:00 19.1 5 Noroeste 22 Sudoeste 0 1007.7 -0.7 58
2019-10-10 12:00:00 16.8 11 Sudoeste 18 Sur 0 1008 0.1 63
2019-10-10 11:00:00 13.8 14 Sudoeste 26 Sudoeste 0 1008.4 0.7 71
2019-10-10 10:00:00 11.9 18 Sudoeste 26 Sur 0 1008.4 0.8 79
2019-10-10 09:00:00 10.7 15 Sudoeste 24 Sudoeste 0 1007.9 0.3 85
2019-10-10 08:00:00 10.6 16 Sudoeste 24 Sudoeste 0 1007.7 0 87
2019-10-10 07:00:00 10.7 13 Sudoeste 22 Sudoeste 0 1007.6 -0.4 89
2019-10-10 06:00:00 11.1 15 Sudoeste 24 Sudoeste 0 1007.6 -0.5 90
2019-10-10 05:00:00 11.4 13 Sudoeste 22 Sudoeste 0 1007.7 -0.6 88
2019-10-10 04:00:00 11.6 14 Sudoeste 24 Sudoeste 0 1008 -0.6 88
2019-10-10 03:00:00 11.9 13 Sudoeste 24 Sudoeste 0 1008.1 -0.6 88
2019-10-10 02:00:00 12 14 Sudoeste 22 Sur 0 1008.3 -0.3 88
2019-10-10 01:00:00 12.4 14 Sudoeste 21 Sur 0 1008.6 0.3 89
2019-10-10 00:00:00 12.9 11 Sudoeste 15 Sudoeste 0 1008.7 0.4 86
2019-10-09 23:00:00 13.2 9 Sudoeste 13 Sudoeste 0 1008.6 0.8 85
2019-10-09 22:00:00 13.7 7 Sudoeste 18 Oeste 0 1008.3 0.5 84
2019-10-09 21:00:00 15.2 13 Oeste 21 Oeste 0 1008.3 0.7 80
2019-10-09 20:00:00 15.6 12 Oeste 24 Noroeste 0 1007.8 0 77
2019-10-09 19:00:00 17 12 Noroeste 24 Oeste 0 1007.8 -0.1 68
2019-10-09 18:00:00 18.2 14 Oeste 30 Noroeste 0 1007.6 0 67
2019-10-09 17:00:00 18.7 21 Oeste 32 Oeste 0 1007.8 0 62
2019-10-09 16:00:00 18.8 16 Oeste 35 Oeste 0 1007.9 0.2 59
2019-10-09 15:00:00 18.5 23 Oeste 37 Oeste 0 1007.6 -0.4 60
2019-10-09 14:00:00 17.9 16 Noroeste 30 Oeste 0 1007.8 -0.4 60
2019-10-09 13:00:00 18.7 15 Sudoeste 35 Sudoeste 0 1007.7 0.1 56
2019-10-09 12:00:00 17.1 15 Sudoeste 28 Sudoeste 0 1008 1 63
2019-10-09 11:00:00 14.3 14 Sudoeste 24 Sudoeste 0 1008.2 1.7 73
2019-10-09 10:00:00 13.7 15 Sudoeste 26 Sudoeste 0 1007.6 1.4 75
2019-10-09 09:00:00 12.6 15 Sudoeste 26 Sudoeste 0 1007 0.8 79
2019-10-09 08:00:00 12.4 18 Sudoeste 28 Sudoeste 0 1006.5 0.6 82
2019-10-09 07:00:00 12.3 15 Sudoeste 24 Sudoeste 0 1006.2 0.3 84
2019-10-09 06:00:00 13.1 11 Sudoeste 22 Oeste 0 1006.2 0 83
2019-10-09 05:00:00 13.3 11 Sudoeste 18 Oeste 0 1005.9 0.1 81
2019-10-09 04:00:00 13.7 12 Oeste 24 Oeste 0 1005.9 0.2 83
2019-10-09 03:00:00 14.4 16 Sudoeste 26 Sudoeste 0 1006.2 -0.1 82
2019-10-09 02:00:00 13.9 10 Sudoeste 22 Sur 0 1005.8 -0.7 95
2019-10-09 01:00:00 14 12 Sudoeste 24 Sudoeste 0 1005.7 -0.6 94
2019-10-09 00:00:00 14.1 10 Sudoeste 21 Sudoeste 0 1006.3 -0.1 96
2019-10-08 23:00:00 14.1 10 Sudoeste 17 Sur 0 1006.5 0.5 95
2019-10-08 22:00:00 13.9 10 Sudoeste 28 Oeste 0.2 1006.3 0.7 97
2019-10-08 21:00:00 14 11 Oeste 26 Oeste 0.8 1006.4 1 99
2019-10-08 20:00:00 14.7 11 Noroeste 22 Oeste 0.5 1006 0.4 98
2019-10-08 19:00:00 15.1 13 Oeste 24 Oeste 0 1005.6 0.1 95
2019-10-08 18:00:00 15.3 11 Oeste 21 Oeste 0.2 1005.4 0.3 96
2019-10-08 17:00:00 15.2 9 Oeste 26 Oeste 0.7 1005.6 0.9 97
2019-10-08 16:00:00 15.3 22 Oeste 35 Oeste 0.1 1005.5 1.8 98
2019-10-08 15:00:00 15.5 19 Noroeste 42 Noroeste 0.7 1005.1 2.3 100
2019-10-08 14:00:00 16.4 17 Noroeste 39 Oeste 0.1 1004.7 2.3 100
2019-10-08 13:00:00 17.9 17 Noroeste 37 Oeste 0 1003.7 1.5 99
2019-10-08 12:00:00 21.4 9 Oeste 28 Sudoeste 0 1002.8 0.4 67
2019-10-08 11:00:00 19.5 20 Sudoeste 32 Sudoeste 0 1002.4 -0.2 63
2019-10-08 10:00:00 15.7 22 Sudoeste 37 Sudoeste 0 1002.2 -0.3 73
2019-10-08 09:00:00 14.9 24 Sudoeste 33 Sudoeste 0 1002.4 -0.1 75
2019-10-08 08:00:00 15.3 19 Sudoeste 33 Sur 0 1002.6 -0.1 75
2019-10-08 07:00:00 15.4 15 Sudoeste 26 Sudoeste 0 1002.5 -0.7 74
2019-10-08 06:00:00 15.7 16 Sudoeste 24 Sur 0 1002.5 -1.4 73
2019-10-08 05:00:00 16.1 15 Sudoeste 30 Sudoeste 0 1002.7 -1.5 73
2019-10-08 04:00:00 15.5 19 Sudoeste 30 Sudoeste 0 1003.2 -1.4 76
2019-10-08 03:00:00 15.9 16 Sudoeste 28 Sudoeste 0 1003.9 -0.9 76
2019-10-08 02:00:00 16.5 17 Sudoeste 24 Sudoeste 0 1004.2 -0.6 74
2019-10-08 01:00:00 16.8 15 Sudoeste 22 Sudoeste 0 1004.6 0 74
2019-10-08 00:00:00 17.4 12 Sudoeste 22 Sudoeste 0 1004.8 0.3 72
2019-10-07 23:00:00 17.6 10 Sudoeste 17 Sudoeste 0 1004.8 0.2 75
2019-10-07 22:00:00 18.2 9 Sudoeste 17 Sudoeste 0 1004.6 -0.3 72
2019-10-07 21:00:00 17.2 0 Calma 11 Sur 0 1004.5 -0.8 73
2019-10-07 20:00:00 19.6 3 Sur 8 Sudeste 0 1004.6 -1.1 63
2019-10-07 19:00:00 22.8 0 Calma 9 Sudoeste 0 1004.9 -1 56
2019-10-07 18:00:00 22.1 3 Oeste 11 Oeste 0 1005.3 -0.7 51
2019-10-07 17:00:00 21.7 5 Noroeste 11 Oeste 0 1005.7 -0.3 44
2019-10-07 16:00:00 19.9 5 Norte 17 Norte 0 1005.9 -0.1 70
2019-10-07 15:00:00 20 10 Noroeste 17 Noroeste 0 1006 -0.2 72
2019-10-07 14:00:00 20.3 10 Norte 15 Norte 0 1006 -0.5 65
2019-10-07 13:00:00 21.8 7 Sudoeste 15 Sur 0 1006 -0.4 50
2019-10-07 12:00:00 19.1 9 Sur 24 Sudoeste 0 1006.2 0.1 56
2019-10-07 11:00:00 15.9 14 Sudoeste 21 Sudoeste 0 1006.5 0.6 69
2019-10-07 10:00:00 14.2 12 Sudoeste 22 Sudoeste 0 1006.4 1.1 76
2019-10-07 09:00:00 12.5 9 Sudoeste 17 Sudoeste 0 1006.1 0.9 86
2019-10-07 08:00:00 12.7 9 Sudoeste 32 Sudoeste 0 1005.9 0.4 89
2019-10-07 07:00:00 13.1 13 Sudoeste 28 Sudoeste 0 1005.3 -0.7 94
2019-10-07 06:00:00 13.3 15 Sudoeste 24 Sudoeste 0 1005.2 -1.3 97
2019-10-07 05:00:00 13.5 15 Sudoeste 22 Sur 0 1005.5 -1.2 97
2019-10-07 04:00:00 13.7 9 Sur 18 Sur 0 1006 -1.5 96
2019-10-07 03:00:00 14 12 Sur 17 Sudoeste 0 1006.5 -1.1 95
2019-10-07 02:00:00 13.2 7 Sur 9 Sur 0 1006.7 -1.6 93
2019-10-07 01:00:00 13.8 4 Sudeste 11 Sur 0 1007.5 -1.1 89
2019-10-07 00:00:00 14.8 9 Sur 11 Sur 0 1007.6 -0.9 84
2019-10-06 23:00:00 15.6 6 Sur 11 Sudeste 0 1008.3 -0.1 80
2019-10-06 22:00:00 14.7 6 Sudeste -- -- 0 1008.6 0.8 88
2019-10-06 21:00:00 15.5 5 Este -- -- 0 1008.5 1 80
2019-10-06 20:00:00 16.6 0 Calma 8 Nordeste 0 1008.4 0.9 75
2019-10-06 19:00:00 17.3 5 Nordeste 13 Norte 0 1007.8 -0.1 71
2019-10-06 18:00:00 17.7 6 Nordeste 11 Norte 0 1007.5 -0.4 72
2019-10-06 17:00:00 18.2 5 Nordeste 15 Norte 0 1007.5 -0.7 74
2019-10-06 16:00:00 18.8 4 Norte 17 Norte 0 1007.9 -0.3 74
2019-10-06 15:00:00 20.2 13 Noroeste 26 Oeste 0 1007.9 0.2 73
2019-10-06 14:00:00 19.9 17 Oeste 26 Oeste 0 1008.2 0.9 76
2019-10-06 13:00:00 18.8 12 Noroeste 18 Oeste 0 1008.2 1.1 80
2019-10-06 12:00:00 17.5 10 Oeste 18 Oeste 0 1007.7 1.1 86
2019-10-06 11:00:00 16.8 7 Oeste 13 Sudoeste 0 1007.3 1.5 87
2019-10-06 10:00:00 16.2 9 Oeste 26 Oeste 0 1007.1 1.4 90
2019-10-06 09:00:00 15.1 10 Sudoeste 17 Sudoeste 0 1006.6 1.1 92
2019-10-06 08:00:00 14.5 9 Sudoeste 24 Sudoeste 0 1005.8 0.5 95
2019-10-06 07:00:00 14.6 9 Sudoeste 15 Oeste 0 1005.7 0.2 96
2019-10-06 06:00:00 15.2 12 Oeste 26 Oeste 0 1005.5 0.2 92
2019-10-06 05:00:00 14.6 4 Sudoeste 13 Oeste 0 1005.3 -0.2 94
2019-10-06 04:00:00 15.5 12 Oeste 26 Sudoeste 0 1005.5 -0.1 84
2019-10-06 03:00:00 14.4 14 Sudoeste 24 Sudoeste 0 1005.3 -0.3 89
2019-10-06 02:00:00 14.3 13 Sudoeste 22 Sudoeste 0 1005.5 0.1 89
2019-10-06 01:00:00 14.5 10 Sudoeste 21 Sur 0 1005.6 0.6 87
2019-10-06 00:00:00 14.9 11 Sudoeste 17 Sudoeste 0 1005.6 1 84
2019-10-05 23:00:00 15.6 9 Sudoeste 17 Sur 0 1005.4 0.7 78
2019-10-05 22:00:00 16 9 Oeste 21 Noroeste 0 1005 0.4 77
2019-10-05 21:00:00 15.9 6 Oeste 9 Oeste 0 1004.6 0.5 79
2019-10-05 20:00:00 16.7 6 Noroeste 11 Noroeste 0 1004.7 0.9 74
2019-10-05 19:00:00 17.2 6 Noroeste 13 Noroeste 0 1004.6 1.1 74
2019-10-05 18:00:00 17.7 9 Noroeste 18 Noroeste 0 1004.1 0.5 71
2019-10-05 17:00:00 18.1 11 Noroeste 18 Noroeste 0 1003.8 -0.3 71
2019-10-05 16:00:00 18.1 10 Noroeste 17 Oeste 0 1003.5 -1 78
2019-10-05 15:00:00 17.9 11 Noroeste 18 Noroeste 0 1003.6 -0.7 77
2019-10-05 14:00:00 18.2 10 Noroeste 15 Oeste 0 1004.1 0.1 73
2019-10-05 13:00:00 17.7 11 Oeste 22 Oeste 0 1004.5 1.1 75
2019-10-05 12:00:00 17.2 15 Oeste 22 Oeste 0 1004.3 1.6 79
2019-10-05 11:00:00 16.6 12 Oeste 18 Oeste 0 1004 1.8 81
2019-10-05 10:00:00 15.8 8 Oeste 26 Sudoeste 0 1003.4 1.3 86
2019-10-05 09:00:00 14.8 8 Sudoeste 17 Sur 0 1002.7 0.2 89
2019-10-05 08:00:00 14.9 9 Sudoeste 15 Sur 0 1002.2 -0.7 88
2019-10-05 07:00:00 15.1 8 Sur 13 Sur 0 1002.1 -1.3 84
2019-10-05 06:00:00 14.9 8 Sur 13 Sur 0 1002.5 -1.2 84
2019-10-05 05:00:00 14.3 10 Sur 13 Sudoeste 0 1002.9 -1 91
2019-10-05 04:00:00 15.5 8 Sudoeste 11 Sudoeste 0 1003.4 -0.6 83
2019-10-05 03:00:00 15.8 6 Sudoeste 9 Sur 0 1003.7 -0.4 83
2019-10-05 02:00:00 15.7 4 Sudoeste 9 Sudoeste 0 1003.9 -0.3 87
2019-10-05 01:00:00 15.8 0 Calma -- -- 0 1004 -0.3 88
2019-10-05 00:00:00 15.9 2 Sur 5 Sur 0 1004.1 -0.1 86
2019-10-04 23:00:00 16.1 0 Calma 4 Sur 0 1004.2 0.2 87
2019-10-04 22:00:00 16.2 0 Calma 11 Sur 0 1004.3 0.5 84
2019-10-04 21:00:00 16.5 0 Calma 9 Oeste 0 1004.2 0.5 84
2019-10-04 20:00:00 16.7 5 Oeste 9 Noroeste 0 1004 0.3 79
2019-10-04 19:00:00 17 6 Noroeste 13 Noroeste 0 1003.8 -0.5 79
2019-10-04 18:00:00 17.7 7 Noroeste 15 Noroeste 0 1003.7 -0.8 72
2019-10-04 17:00:00 18 9 Noroeste 17 Noroeste 0 1003.7 -1 72
2019-10-04 16:00:00 17.7 13 Noroeste 21 Oeste 0 1004.3 -0.4 78
2019-10-04 15:00:00 18.3 13 Noroeste 24 Oeste 0 1004.5 -0.5 74
2019-10-04 14:00:00 18.3 13 Noroeste 21 Oeste 0 1004.7 -0.6 75
2019-10-04 13:00:00 17.8 11 Oeste 17 Oeste 0 1004.7 -0.3 78
2019-10-04 12:00:00 15.7 6 Oeste 26 Oeste 0.3 1005 0.6 97
2019-10-04 11:00:00 15.5 11 Oeste 26 Oeste 0.1 1005.3 1.4 100
2019-10-04 10:00:00 15.3 10 Noroeste 21 Noroeste 0.6 1005 1.2 100
2019-10-04 09:00:00 15.5 13 Oeste 21 Oeste 0.4 1004.4 0.7 99
2019-10-04 08:00:00 15.5 10 Oeste 21 Sudoeste 0 1003.9 0.3 96
2019-10-04 07:00:00 15.7 13 Oeste 28 Oeste 0 1003.8 0.2 99
2019-10-04 06:00:00 15.7 13 Oeste 28 Noroeste 0 1003.7 -0.1 98
2019-10-04 05:00:00 15.8 13 Oeste 33 Oeste 0 1003.6 -0.2 100
2019-10-04 04:00:00 16.2 15 Oeste 28 Oeste 0.3 1003.6 -0.2 100
2019-10-04 03:00:00 16.6 14 Noroeste 32 Oeste 0.6 1003.8 -0.2 100
2019-10-04 02:00:00 17.1 22 Oeste 32 Oeste 0.1 1003.8 -0.6 100
2019-10-04 01:00:00 17.7 3 Sudoeste 8 Oeste 0 1003.8 0.2 100
2019-10-04 00:00:00 17.8 6 Sur 11 Oeste 0.3 1004 0.3 99
2019-10-03 23:00:00 18.1 8 Oeste 17 Noroeste 0 1004.4 1 92
2019-10-03 22:00:00 19.6 5 Sur 15 Sudoeste 0 1003.6 0.5 71
2019-10-03 21:00:00 19.6 5 Noroeste 9 Noroeste 0 1003.7 0.6 69
2019-10-03 20:00:00 20 5 Norte 9 Norte 0 1003.4 0.3 67
2019-10-03 19:00:00 20.9 2 Oeste 8 Oeste 0 1003.1 -0.4 62
2019-10-03 18:00:00 21.4 4 Norte 11 Norte 0 1003.1 -0.5 59
2019-10-03 17:00:00 21.5 6 Norte 13 Norte 0 1003.1 -1.1 56
2019-10-03 16:00:00 22.3 9 Noroeste 13 Noroeste 0 1003.5 -0.8 51
2019-10-03 15:00:00 22.1 7 Noroeste 17 Noroeste 0 1003.6 -1.1 50
2019-10-03 14:00:00 19.9 6 Norte 17 Noroeste 0 1004.2 -0.2 61
2019-10-03 13:00:00 19.7 8 Norte 13 Norte 0 1004.3 0.1 61
2019-10-03 12:00:00 19.4 6 Sudoeste 17 Sur 0 1004.7 0.3 62
2019-10-03 11:00:00 16.2 12 Sudoeste 24 Sur 0 1004.4 0.2 75
2019-10-03 10:00:00 13.7 15 Sudoeste 24 Sudoeste 0 1004.2 -0.2 89
2019-10-03 09:00:00 12.5 12 Sudoeste 22 Sudoeste 0 1004.4 0.2 98
2019-10-03 08:00:00 12.6 11 Sudoeste 17 Sudoeste 0 1004.2 -0.2 99
2019-10-03 07:00:00 12.9 8 Sudoeste 17 Sudoeste 0 1004.4 0 99
2019-10-03 06:00:00 13 9 Sudoeste 13 Sudoeste 0 1004.2 -0.8 98
2019-10-03 05:00:00 13.4 9 Sudoeste 13 Sudoeste 0 1004.4 -0.9 97
2019-10-03 04:00:00 12.9 5 Sudoeste 9 Sudoeste 0 1004.4 -1.5 97
2019-10-03 03:00:00 13 4 Sur -- -- 0 1005 -1.4 93
2019-10-03 02:00:00 14.1 -- -- -- -- 0 1005.3 -1.8 93
2019-10-03 01:00:00 14.8 9 Sudeste 11 Sudeste 0 1005.9 -1.4 92
2019-10-03 00:00:00 15.1 8 Sudeste 11 Sudeste 0 1006.4 -1 90
2019-10-02 23:00:00 15.5 8 Sudeste 15 Sudeste 0 1007.1 0 89
2019-10-02 22:00:00 15.6 12 Sudeste 15 Sudeste 0 1007.3 0.6 91
2019-10-02 21:00:00 15.7 7 Este 11 Este 0 1007.4 0.9 91
2019-10-02 20:00:00 16.4 4 Nordeste 11 Oeste 0 1007.1 0.5 85
2019-10-02 19:00:00 17.6 5 Noroeste 21 Noroeste 0 1006.7 0.2 79
2019-10-02 18:00:00 18 13 Oeste 26 Oeste 0 1006.5 0.1 78
2019-10-02 17:00:00 18.3 12 Noroeste 26 Noroeste 0 1006.6 -0.1 73
2019-10-02 16:00:00 18.9 15 Oeste 28 Noroeste 0 1006.5 -0.4 71
2019-10-02 15:00:00 19.2 15 Noroeste 28 Noroeste 0 1006.4 0 68
2019-10-02 14:00:00 18.9 13 Oeste 30 Noroeste 0 1006.7 0.5 69
2019-10-02 13:00:00 17.5 20 Oeste 30 Noroeste 0 1006.9 1.6 74
2019-10-02 12:00:00 17 14 Oeste 26 Oeste 0 1006.4 2 69
2019-10-02 11:00:00 17.1 10 Oeste 18 Sur 0 1006.2 2.3 70
2019-10-02 10:00:00 15.3 12 Sudoeste 22 Sudoeste 0 1005.3 1.6 79
2019-10-02 09:00:00 14 16 Sudoeste 32 Oeste 0 1004.4 0.7 91
2019-10-02 08:00:00 14.4 16 Oeste 32 Oeste 0 1003.9 0.7 81
2019-10-02 07:00:00 14.1 21 Oeste 48 Noroeste 0.1 1003.7 0.5 90
2019-10-02 06:00:00 14.5 26 Oeste 45 Noroeste 0.1 1003.7 0.5 98
2019-10-02 05:00:00 17 22 Oeste 41 Oeste 0 1003.2 0.2 63
2019-10-02 04:00:00 17.2 18 Oeste 41 Oeste 0 1003.2 0.3 59
2019-10-02 03:00:00 17.6 30 Oeste 45 Oeste 0 1003.2 0.4 56
2019-10-02 02:00:00 17.8 23 Oeste 46 Oeste 0 1003 0.3 55
2019-10-02 01:00:00 17.5 16 Oeste 42 Oeste 0 1002.9 1.1 57
2019-10-02 00:00:00 16.7 27 Oeste 52 Oeste 0 1002.8 2 72
2019-10-01 23:00:00 17.2 39 Oeste 54 Oeste 0 1002.7 2.2 74
2019-10-01 22:00:00 17.3 23 Oeste 54 Oeste 0 1001.8 1.6 72
2019-10-01 21:00:00 17.2 37 Oeste 61 Oeste 0 1000.8 1.1 74
2019-10-01 20:00:00 17.2 34 Oeste 55 Oeste 0 1000.5 1.1 78
2019-10-01 19:00:00 18.3 32 Oeste 55 Oeste 0 1000.2 0.9 74
2019-10-01 18:00:00 19.5 34 Oeste 52 Oeste 0 999.7 0.5 72
2019-10-01 17:00:00 20.1 35 Oeste 54 Oeste 0 999.4 0.1 68
2019-10-01 16:00:00 20.2 33 Oeste 50 Oeste 0 999.3 -0.1 70
2019-10-01 15:00:00 20.7 28 Oeste 41 Oeste 0 999.2 -0.2 69
2019-10-01 14:00:00 20 25 Oeste 37 Noroeste 0 999.3 0 70
2019-10-01 13:00:00 21 13 Oeste 39 Oeste 0 999.4 0.8 70
2019-10-01 12:00:00 19.9 22 Oeste 32 Oeste 0 999.4 1.2 70
2019-10-01 11:00:00 20.9 14 Oeste 30 Oeste 0 999.3 1.7 63
2019-10-01 10:00:00 20.1 18 Oeste 39 Oeste 0 998.6 1 63
2019-10-01 09:00:00 18.9 21 Oeste 37 Oeste 0 998.2 0.9 68
2019-10-01 08:00:00 17.4 7 Sudoeste 17 Oeste 0 997.6 0.1 83
2019-10-01 07:00:00 17.2 7 Sudoeste 13 Sudoeste 0 997.6 -0.4 86
2019-10-01 06:00:00 16.5 3 Sudoeste 13 Sudoeste 0 997.3 -1.2 96
2019-10-01 05:00:00 16.3 7 Sudoeste 21 Sudoeste 0 997.5 -1.2 100
2019-10-01 04:00:00 16.7 3 Sudoeste 18 Sur 0 998 -0.9 100
2019-10-01 03:00:00 16.9 6 Sur 9 Sur 0 998.5 -0.6 99
2019-10-01 02:00:00 17.5 6 Sudoeste 11 Sudeste 0 998.7 -0.5 98
2019-10-01 01:00:00 18.1 7 Sur 9 Sur 0 998.9 -0.6 96
2019-10-01 00:00:00 17.9 7 Sudeste 13 Sudeste 0 999.1 -0.3 97
2019-09-30 23:00:00 17.6 8 Sudeste 13 Sudeste 0 999.2 -0.3 97
2019-09-30 22:00:00 18.5 5 Sudeste 9 Sudeste 0 999.5 0.7 97
2019-09-30 21:00:00 18.8 0 Calma 17 Noroeste 0 999.4 0.7 99
2019-09-30 20:00:00 19.4 13 Oeste 21 Oeste 0 999.5 0.3 91
2019-09-30 19:00:00 22.6 7 Nordeste 13 Norte 0 998.8 -1 67
2019-09-30 18:00:00 24.5 8 Nordeste 15 Sudeste 0 998.7 -1.3 60
2019-09-30 17:00:00 24.2 7 Nordeste 15 Nordeste 0 999.2 -1.2 61
2019-09-30 16:00:00 24 5 Norte 15 Nordeste 0 999.8 -1 63
2019-09-30 15:00:00 24.3 8 Norte 17 Nordeste 0 1000 -1.4 62
2019-09-30 14:00:00 24.1 9 Norte 17 Norte 0 1000.4 -1.4 61
2019-09-30 13:00:00 24.6 8 Nordeste 13 Nordeste 0 1000.8 -0.9 62
2019-09-30 12:00:00 22.2 6 Sudeste 15 Sur 0 1001.4 -0.1 71
2019-09-30 11:00:00 20.3 10 Sudoeste 22 Sudoeste 0 1001.8 0.4 73
2019-09-30 10:00:00 18.2 14 Sudoeste 24 Sudoeste 0 1001.7 0.5 85
2019-09-30 09:00:00 16.9 15 Sudoeste 22 Sudoeste 0 1001.5 0.2 93
2019-09-30 08:00:00 16.7 14 Sudoeste 30 Sur 0 1001.4 -0.3 97
2019-09-30 07:00:00 16.7 13 Sudoeste 21 Sudoeste 0 1001.2 -0.9 98
2019-09-30 06:00:00 16.5 8 Sur 17 Sur 0 1001.3 -1.3 99
2019-09-30 05:00:00 15.7 7 Sur 13 Sur 0 1001.7 -1.1 100
2019-09-30 04:00:00 15.3 4 Sudeste 13 Sudeste 0 1002.1 -1.2 99
2019-09-30 03:00:00 15.7 7 Sudeste 11 Sudeste 0 1002.6 -0.9 97
2019-09-30 02:00:00 17.2 9 Sudeste 11 Sudeste 0 1002.8 -0.9 94
2019-09-30 01:00:00 17.8 0 Calma 5 Sudeste 0 1003.3 0 91
2019-09-30 00:00:00 17.6 3 Noroeste 11 Oeste 0 1003.5 0.6 91
2019-09-29 23:00:00 17.7 4 Noroeste 17 Oeste 0 1003.7 1.4 91
2019-09-29 22:00:00 17.5 10 Oeste 22 Oeste 0 1003.3 1.3 96
2019-09-29 21:00:00 17.5 13 Noroeste 32 Noroeste 0 1002.9 1.7 98
2019-09-29 20:00:00 17.7 13 Noroeste 28 Oeste 0 1002.3 1.8 97
2019-09-29 19:00:00 18.2 13 Oeste 26 Noroeste 0 1002 1.5 98
2019-09-29 18:00:00 19.4 15 Noroeste 35 Oeste 0 1001.2 0.7 90
2019-09-29 17:00:00 22.2 15 Noroeste 26 Noroeste 0 1000.5 -0.2 69
2019-09-29 16:00:00 25 18 Noroeste 37 Oeste 0 1000.5 0.1 58
2019-09-29 15:00:00 26 20 Oeste 42 Oeste 0 1000.5 0.3 54
2019-09-29 14:00:00 26.4 22 Oeste 35 Oeste 0 1000.7 0.7 52
2019-09-29 13:00:00 23.5 17 Oeste 30 Oeste 0 1000.4 0.8 57
2019-09-29 12:00:00 23.8 2 Oeste 22 Oeste 0 1000.2 1 52
2019-09-29 11:00:00 21 14 Sudoeste 22 Sudoeste 0 1000 1.4 52
2019-09-29 10:00:00 20.2 4 Sur 13 Norte 0 999.6 0.9 57
2019-09-29 09:00:00 17.2 6 Noroeste 17 Sudoeste 0 999.2 0.3 51
2019-09-29 08:00:00 16.9 9 Sudoeste 18 Sudoeste 0 998.6 -0.6 47
2019-09-29 07:00:00 17.5 10 Sudoeste 26 Sudoeste 0 998.7 -1.5 44
2019-09-29 06:00:00 15.9 17 Sudoeste 30 Sudoeste 0 998.9 -1.9 54
2019-09-29 05:00:00 14.1 20 Sudoeste 28 Sudoeste 0 999.2 -1.7 73
2019-09-29 04:00:00 13.1 12 Sudoeste 21 Sudoeste 0 1000.2 -1 89
2019-09-29 03:00:00 13 10 Sudoeste 17 Sudoeste 0 1000.8 -0.9 95
2019-09-29 02:00:00 13.2 9 Sudoeste 17 Oeste 0 1000.9 -1.1 94
2019-09-29 01:00:00 14.3 10 Sudoeste 21 Sur 0 1001.2 -1.2 89
2019-09-29 00:00:00 13.9 9 Sur 17 Sudoeste 0 1001.7 -0.7 91
2019-09-28 23:00:00 14 5 Sudoeste 11 Sur 0 1002 -0.5 92
2019-09-28 22:00:00 14.2 5 Sudoeste 9 Sudoeste 0 1002.4 -0.5 93
2019-09-28 21:00:00 14.9 0 Calma 5 Norte 0 1002.4 -1 87
2019-09-28 20:00:00 16.6 0 Calma 11 Este 0 1002.5 -1 78
2019-09-28 19:00:00 17.7 5 Nordeste 13 Norte 0 1002.9 -0.9 73
2019-09-28 18:00:00 18.4 9 Norte 17 Norte 0 1003.4 -0.9 68
2019-09-28 17:00:00 18.8 9 Norte 21 Norte 0 1003.5 -1.8 66
2019-09-28 16:00:00 19.3 10 Norte 18 Norte 0 1003.8 -2.3 66
2019-09-28 15:00:00 18.9 9 Norte 17 Norte 0 1004.3 -2.3 67
2019-09-28 14:00:00 18.4 9 Norte 17 Norte 0 1005.3 -1.5 67
2019-09-28 13:00:00 18.2 9 Norte 15 Noroeste 0 1006.1 -0.3 67
2019-09-28 12:00:00 17.8 9 Noroeste 17 Sudoeste 0 1006.6 0.4 67
2019-09-28 11:00:00 17.6 10 Oeste 15 Oeste 0 1006.8 0.8 70
2019-09-28 10:00:00 15.8 8 Sur 22 Sudoeste 0 1006.4 0.2 77
2019-09-28 09:00:00 12.8 6 Sudoeste 11 Sudoeste 0 1006.2 -0.3 91
2019-09-28 08:00:00 12.6 8 Sudoeste 17 Sudoeste 0 1006 -0.7 90
2019-09-28 07:00:00 13 5 Sudoeste 9 Sudoeste 0 1006.2 -0.6 82
2019-09-28 06:00:00 13.3 5 Sudoeste 11 Oeste 0 1006.5 -0.6 77
2019-09-28 05:00:00 15 6 Oeste 11 Sudoeste 0 1006.7 -0.6 69
2019-09-28 04:00:00 15.3 4 Sudoeste 13 Oeste 0 1006.8 -0.6 71
2019-09-28 03:00:00 15.8 10 Oeste 17 Oeste 0 1007.1 -0.1 72
2019-09-28 02:00:00 15.9 7 Oeste 21 Oeste 0 1007.3 0.2 80
2019-09-28 01:00:00 16.3 10 Oeste 21 Oeste 0 1007.4 0.5 78
2019-09-28 00:00:00 16.4 10 Oeste 18 Oeste 0 1007.2 0.8 80
2019-09-27 23:00:00 16.5 10 Oeste 21 Oeste 0 1007.1 1.1 79
2019-09-27 22:00:00 16.7 13 Oeste 24 Oeste 0 1006.9 1.3 76
2019-09-27 21:00:00 16.9 12 Oeste 21 Oeste 0 1006.4 1.1 79
2019-09-27 20:00:00 17.4 11 Oeste 22 Oeste 0 1006 1.2 76
2019-09-27 19:00:00 18.3 13 Oeste 22 Oeste 0 1005.6 0.6 71
2019-09-27 18:00:00 18.3 18 Oeste 32 Oeste 0 1005.3 0.1 73
2019-09-27 17:00:00 18.9 22 Oeste 35 Oeste 0 1004.8 -0.1 72
2019-09-27 16:00:00 16.9 26 Oeste 39 Oeste 0 1005 0.3 79
2019-09-27 15:00:00 16.2 26 Oeste 37 Noroeste 0 1005.2 0.9 90
2019-09-27 14:00:00 16.7 19 Oeste 30 Oeste 0 1004.9 0.6 98
2019-09-27 13:00:00 17.5 9 Noroeste 17 Oeste 0 1004.7 0.8 94
2019-09-27 12:00:00 18.5 9 Nordeste 13 Nordeste 0 1004.3 0.7 83
2019-09-27 11:00:00 17.5 4 Este 9 Norte 0 1004.3 0.8 89
2019-09-27 10:00:00 17.7 0 Calma 13 Oeste 0 1003.9 1 84
2019-09-27 09:00:00 16.9 8 Oeste 24 Oeste 0 1003.6 1.1 87
2019-09-27 08:00:00 16.9 11 Noroeste 22 Noroeste 0 1003.5 0.9 92
2019-09-27 07:00:00 18 0 Calma 24 Sudoeste 0 1002.9 0 64
2019-09-27 06:00:00 17.9 17 Sudoeste 28 Sudoeste 0 1002.5 -0.9 62
2019-09-27 05:00:00 17.7 19 Sudoeste 32 Sudoeste 0 1002.6 -1.2 62
2019-09-27 04:00:00 17.8 19 Sudoeste 35 Sudoeste 0 1002.9 -1.3 61
2019-09-27 03:00:00 17.9 22 Sudoeste 35 Sudoeste 0 1003.4 -1.1 61
2019-09-27 02:00:00 15.9 21 Sudoeste 32 Sudoeste 0 1003.8 -0.4 75
2019-09-27 01:00:00 15.5 19 Sudoeste 30 Sudoeste 0 1004.2 0.4 82
2019-09-27 00:00:00 15.3 15 Sudoeste 22 Sudoeste 0 1004.5 1 84
2019-09-26 23:00:00 16 9 Sudoeste 22 Sudoeste 0 1004.2 0.7 81
2019-09-26 22:00:00 16.1 13 Sur 18 Sur 0 1003.8 0.5 81
2019-09-26 21:00:00 16.2 11 Sur 15 Sudeste 0 1003.5 0.7 82
2019-09-26 20:00:00 18.4 0 Calma 9 Nordeste 0 1003.5 0.5 70
2019-09-26 19:00:00 19.4 4 Nordeste 13 Nordeste 0 1003.3 0.1 67
2019-09-26 18:00:00 20.5 7 Nordeste 18 Nordeste 0 1002.8 -0.4 55
2019-09-26 17:00:00 21.6 9 Este 15 Este 0 1003 -0.4 54
2019-09-26 16:00:00 21.1 6 Norte 15 Norte 0 1003.2 -0.4 53
2019-09-26 15:00:00 20.2 7 Norte 17 Norte 0 1003.2 -0.7 59
2019-09-26 14:00:00 20.5 9 Norte 15 Noroeste 0 1003.4 -0.4 56
2019-09-26 13:00:00 20 10 Norte 17 Noroeste 0 1003.6 0.1 53
2019-09-26 12:00:00 20.3 10 Oeste 22 Sudoeste 0 1003.9 0.5 54
2019-09-26 11:00:00 17.6 13 Sudoeste 24 Sudoeste 0 1003.8 0.6 62
2019-09-26 10:00:00 15.3 15 Sudoeste 22 Sudoeste 0 1003.5 0.5 74
2019-09-26 09:00:00 12.8 14 Sudoeste 21 Sudoeste 0 1003.4 0.4 93
2019-09-26 08:00:00 12.5 9 Sudoeste 21 Sur 0 1003.2 0.1 93
2019-09-26 07:00:00 12.7 8 Sudoeste 15 Sudoeste 0 1003 0 93
2019-09-26 06:00:00 13 8 Oeste 13 Oeste 0 1003 -0.2 87
2019-09-26 05:00:00 13 5 Sudoeste 9 Sudoeste 0 1003.1 -0.1 89
2019-09-26 04:00:00 13.1 4 Oeste 8 Oeste 0 1003 -0.6 89
2019-09-26 03:00:00 14.1 5 Sudoeste 9 Sudoeste 0 1003.2 -0.4 91
2019-09-26 02:00:00 15.2 6 Sudoeste 22 Oeste 0 1003.2 -0.2 78
2019-09-26 01:00:00 16.8 15 Oeste 24 Oeste 0 1003.6 0.4 73
2019-09-26 00:00:00 15.7 6 Sudoeste 21 Oeste 0 1003.6 0.7 82
2019-09-25 23:00:00 14.9 8 Oeste 17 Oeste 0 1003.4 0.9 89
2019-09-25 22:00:00 16.4 7 Noroeste 24 Oeste 0 1003.2 0.7 90
2019-09-25 21:00:00 16.8 15 Noroeste 26 Oeste 0 1002.9 0.6 91
2019-09-25 20:00:00 17.7 15 Noroeste 30 Oeste 0 1002.5 0.2 85
2019-09-25 19:00:00 19 14 Oeste 35 Oeste 0 1002.5 0 76
2019-09-25 18:00:00 19.9 18 Oeste 28 Oeste 0 1002.3 -0.7 68
2019-09-25 17:00:00 19.3 17 Oeste 35 Oeste 0 1002.3 -1.2 71
2019-09-25 16:00:00 19.2 12 Noroeste 26 Oeste 0 1002.5 -1.2 67
2019-09-25 15:00:00 19.1 16 Oeste 30 Oeste 0 1003 -0.7 70
2019-09-25 14:00:00 19.5 13 Oeste 26 Oeste 0 1003.5 -0.1 69
2019-09-25 13:00:00 18.8 15 Oeste 26 Oeste 0 1003.7 0.5 70
2019-09-25 12:00:00 19.1 15 Noroeste 26 Oeste 0 1003.7 0.6 68
2019-09-25 11:00:00 20.1 12 Oeste 26 Sudoeste 0 1003.6 0.6 56
2019-09-25 10:00:00 17.3 16 Sudoeste 37 Sudoeste 0 1003.2 0.4 61
2019-09-25 09:00:00 16 15 Sudoeste 30 Sudoeste 0 1003.1 0.3 64
2019-09-25 08:00:00 15.2 13 Sudoeste 28 Oeste 0 1003 0.4 67
2019-09-25 07:00:00 15.3 11 Oeste 22 Sudoeste 0 1002.8 -0.2 68
2019-09-25 06:00:00 15.9 14 Sudoeste 24 Sudoeste 0 1002.8 -0.2 65
2019-09-25 05:00:00 16 14 Sudoeste 26 Sudoeste 0 1002.6 -0.1 64
2019-09-25 04:00:00 16.4 15 Oeste 30 Oeste 0 1003 -0.1 61
2019-09-25 03:00:00 16.7 15 Oeste 24 Oeste 0 1003 -0.1 59
2019-09-25 02:00:00 16.6 13 Oeste 30 Oeste 0 1002.7 -0.3 59
2019-09-25 01:00:00 16.5 12 Oeste 21 Oeste 0 1003.1 0.4 64
2019-09-25 00:00:00 15.4 12 Sudoeste 28 Oeste 0 1003.1 1.1 72
2019-09-24 23:00:00 16.5 21 Oeste 37 Oeste 0 1003 1.5 72
2019-09-24 22:00:00 16.6 24 Oeste 42 Oeste 0 1002.7 1.5 73
2019-09-24 21:00:00 16.9 27 Oeste 48 Oeste 0 1002 1.2 71
2019-09-24 20:00:00 17.1 32 Oeste 46 Oeste 0 1001.5 0.7 70
2019-09-24 19:00:00 18 33 Oeste 48 Oeste 0 1001.2 0.7 70
2019-09-24 18:00:00 18.5 33 Oeste 50 Oeste 0 1000.8 0.2 72
2019-09-24 17:00:00 19.6 28 Oeste 45 Noroeste 0 1000.8 0.2 70
2019-09-24 16:00:00 18.9 27 Oeste 41 Oeste 0 1000.5 -0.2 73
2019-09-24 15:00:00 19.1 20 Oeste 30 Oeste 0 1000.6 0.2 81
2019-09-24 14:00:00 18.5 15 Noroeste 33 Oeste 0 1000.6 0.5 75
2019-09-24 13:00:00 17.6 17 Oeste 37 Noroeste 0 1000.7 1.3 81
2019-09-24 12:00:00 17.8 21 Oeste 33 Noroeste 0 1000.4 1.2 90
2019-09-24 11:00:00 17.1 12 Oeste 32 Oeste 0 1000.1 2.6 100
2019-09-24 10:00:00 16.8 24 Oeste 46 Noroeste 0.1 999.4 2 100
2019-09-24 09:00:00 15.8 33 Oeste 52 Oeste 0 999.2 2.2 94
2019-09-24 08:00:00 21.9 26 Oeste 46 Oeste 0 997.5 0.9 62
2019-09-24 07:00:00 20.9 17 Oeste 39 Oeste 0 997.4 1 67
2019-09-24 06:00:00 19.5 3 Norte 13 Oeste 0.1 997 0.5 78
2019-09-24 05:00:00 20.3 2 Noroeste 15 Norte 0 996.6 0 71
2019-09-24 04:00:00 21 15 Oeste 33 Oeste 0.2 996.4 -1 66
2019-09-24 03:00:00 20.1 9 Sudoeste 17 Oeste 0 996.5 -1.7 68
2019-09-24 02:00:00 19 12 Sur 17 Sur 0 996.6 -2.2 76
2019-09-24 01:00:00 19 9 Sur 18 Sur 0 997.4 -2 77
2019-09-24 00:00:00 18.5 11 Sur 17 Sur 0 998.2 -1.6 79
2019-09-23 23:00:00 17 9 Sudoeste 17 Sudoeste 0 998.8 -1.3 93
2019-09-23 22:00:00 16.7 10 Sudoeste 18 Sur 0 999.4 -0.9 95
2019-09-23 21:00:00 16.8 14 Sudeste 18 Sudeste 0 999.8 -0.8 98
2019-09-23 20:00:00 17.1 12 Sudeste 18 Sur 0.4 1000.1 -0.6 96
2019-09-23 19:00:00 17.7 5 Sudoeste 26 Sur 0.4 1000.3 -0.2 84
2019-09-23 18:00:00 17.9 4 Sudoeste 15 Sur 0.4 1000.6 -0.4 91
2019-09-23 17:00:00 18.6 6 Sudeste 11 Sudeste 0.7 1000.7 -0.7 81
2019-09-23 16:00:00 18.7 9 Sudeste 22 Sur 0.1 1000.5 -0.8 82
2019-09-23 15:00:00 18.5 10 Sudeste 15 Sudeste 0.2 1001 -0.7 78
2019-09-23 14:00:00 19.7 5 Sur 11 Sudoeste 0 1001.4 -1 62
2019-09-23 13:00:00 20.1 3 Sur 13 Este 0 1001.3 -1.4 64
2019-09-23 12:00:00 18.3 7 Sudeste 15 Sudoeste 0 1001.7 -0.4 64
2019-09-23 11:00:00 17.2 10 Sur 17 Sur 0 1002.4 0.5 75
2019-09-23 10:00:00 15.7 12 Sur 21 Sudoeste 0 1002.7 0.4 73
2019-09-23 09:00:00 13.5 14 Sudoeste 21 Sudoeste 0 1002.1 -0.4 91
2019-09-23 08:00:00 13.3 11 Sur 32 Sudoeste 0 1001.9 -0.5 92
2019-09-23 07:00:00 14.1 14 Sudoeste 22 Sur 0 1002.3 -0.2 88
2019-09-23 06:00:00 13.9 13 Sudoeste 18 Sudoeste 0 1002.5 0.1 89
2019-09-23 05:00:00 14.2 12 Sudoeste 18 Sudoeste 0 1002.4 0.1 87
2019-09-23 04:00:00 14.2 12 Sudoeste 18 Sudoeste 0 1002.5 0.1 87
2019-09-23 03:00:00 14.1 12 Sudoeste 22 Sudoeste 0 1002.4 -0.1 88
2019-09-23 02:00:00 14.2 13 Sur 18 Sur 0 1002.3 0 88
2019-09-23 01:00:00 14.4 12 Sur 18 Sur 0 1002.4 0.5 86
2019-09-23 00:00:00 13.5 10 Sur 17 Sudoeste 0 1002.5 1.3 93
2019-09-22 23:00:00 14.4 0 Calma 13 Noroeste 0 1002.3 1.7 83
2019-09-22 22:00:00 15.7 3 Oeste 17 Noroeste 0 1001.9 1.5 83
2019-09-22 21:00:00 15.6 4 Sur 18 Oeste 0 1001.2 1.5 84
2019-09-22 20:00:00 16.5 15 Oeste 28 Oeste 0 1000.6 1.3 80
2019-09-22 19:00:00 17 14 Oeste 28 Oeste 0 1000.4 1.7 77
2019-09-22 18:00:00 18.6 12 Noroeste 35 Oeste 0 999.7 1.4 73
2019-09-22 17:00:00 19.2 19 Oeste 30 Oeste 0 999.3 1 67
2019-09-22 16:00:00 20.5 13 Noroeste 24 Oeste 0 998.7 0.7 60
2019-09-22 15:00:00 22.5 18 Noroeste 42 Oeste 0 998.3 0.4 46
2019-09-22 14:00:00 22.8 28 Oeste 45 Oeste 0 998.3 0.8 43
2019-09-22 13:00:00 21.5 22 Oeste 41 Oeste 0 998 1.1 46
2019-09-22 12:00:00 20.5 20 Oeste 35 Oeste 0 997.9 1.9 50
2019-09-22 11:00:00 19.8 10 Sudoeste 26 Sudoeste 0 997.5 2.5 51
2019-09-22 10:00:00 17.9 15 Sudoeste 32 Sudoeste 0 996.9 2.7 53
2019-09-22 09:00:00 16.6 11 Sudoeste 24 Oeste 0 996 2.4 58
2019-09-22 08:00:00 13.6 6 Sudoeste 13 Sudoeste 0 995 1.9 76
2019-09-22 07:00:00 15.1 5 Noroeste 11 Norte 0 994.2 1.3 72
2019-09-22 06:00:00 16 6 Noroeste 30 Oeste 0 993.6 1.2 68
2019-09-22 05:00:00 17.5 22 Oeste 32 Oeste 0 993.1 1.1 60
2019-09-22 04:00:00 16.4 12 Oeste 26 Oeste 0 992.9 1.2 64
2019-09-22 03:00:00 17.4 14 Sudoeste 37 Sudoeste 0 992.4 0.9 57
2019-09-22 02:00:00 17.3 20 Sudoeste 46 Sudoeste 0 992 0.8 58
2019-09-22 01:00:00 17.4 29 Sudoeste 52 Oeste 0 991.7 0.8 60
2019-09-22 00:00:00 16.1 5 Oeste 21 Sudoeste 0 991.5 0.9 86
2019-09-21 23:00:00 15.7 12 Noroeste 32 Oeste 3.6 991.2 2.3 99
2019-09-21 22:00:00 15 12 Noroeste 35 Noroeste 0 990.9 3.1 99
2019-09-21 21:00:00 15.9 28 Oeste 45 Oeste 0 990.6 1.7 98
2019-09-21 20:00:00 17.7 14 Noroeste 24 Noroeste 0.1 988.9 -0.2 97
2019-09-21 19:00:00 22.5 3 Este 13 Sudeste 0 987.8 -1.6 69
2019-09-21 18:00:00 20.6 2 Este 18 Oeste 0.1 988.9 -0.9 84
2019-09-21 17:00:00 23.8 6 Nordeste 15 Nordeste 0 989.1 -1.1 64
2019-09-21 16:00:00 24.9 3 Nordeste 11 Nordeste 0 989.4 -1.4 58
2019-09-21 15:00:00 25.2 7 Sudoeste 11 Sudoeste 0 989.8 -1.8 57
2019-09-21 14:00:00 26 8 Oeste 22 Sudeste 0 990.2 -2 56
2019-09-21 13:00:00 21.6 12 Sudeste 21 Sudeste 0 990.8 -1.2 72
2019-09-21 12:00:00 19.3 9 Sur 32 Sur 0.1 991.6 -0.6 78
2019-09-21 11:00:00 17.8 19 Sudoeste 30 Sur 0 992.2 0.3 89
2019-09-21 10:00:00 17.3 11 Sur 32 Sudoeste 0 992 -0.4 93
2019-09-21 09:00:00 15.8 14 Sudoeste 22 Sudoeste 0 992.2 -0.7 99
2019-09-21 08:00:00 15.5 9 Sur 21 Sudeste 0 991.9 -1.5 99
2019-09-21 07:00:00 15.8 12 Sur 21 Sudoeste 0 992.4 -2 99
2019-09-21 06:00:00 15.8 14 Sur 22 Sudeste 0 992.9 -1.7 99
2019-09-21 05:00:00 16 9 Sur 13 Sudeste 0 993.4 -1 99
2019-09-21 04:00:00 15.9 3 Sudoeste 8 Oeste 0 994.4 -0.2 99
2019-09-21 03:00:00 15.5 4 Sur 15 Sur 0 994.6 -0.7 99
2019-09-21 02:00:00 15.8 8 Sudoeste 15 Sur 0 994.4 -1.4 98
2019-09-21 01:00:00 15.7 4 Sur 11 Sur 0 994.6 -1.5 97
2019-09-21 00:00:00 16.7 4 Sudoeste 21 Sudoeste 0 995.3 -0.3 96
2019-09-20 23:00:00 16.6 14 Oeste 28 Oeste 0 995.8 0.2 97
2019-09-20 22:00:00 16.1 19 Oeste 37 Oeste 0 996.1 0.9 99
2019-09-20 21:00:00 15.7 17 Oeste 37 Oeste 0 995.6 0.6 99
2019-09-20 20:00:00 15.4 19 Noroeste 35 Oeste 0 995.6 0.2 99
2019-09-20 19:00:00 15.1 16 Noroeste 30 Noroeste 0 995.2 -0.5 99
2019-09-20 18:00:00 15.6 12 Noroeste 24 Noroeste 0 995 -1.2 99
2019-09-20 17:00:00 15.9 12 Noroeste 24 Noroeste 0 995.4 -1.3 99
2019-09-20 16:00:00 16.6 12 Noroeste 18 Oeste 0 995.7 -1.4 97
2019-09-20 15:00:00 16.7 10 Noroeste 17 Noroeste 0 996.2 -1.4 95
2019-09-20 14:00:00 18.4 10 Noroeste 17 Noroeste 0 996.7 -1 86
2019-09-20 13:00:00 18 9 Noroeste 17 Noroeste 0 997.1 -0.5 79
2019-09-20 12:00:00 17.7 7 Noroeste 15 Noroeste 0 997.6 0.1 90
2019-09-20 11:00:00 19.4 9 Sudoeste 15 Oeste 0 997.7 0 83
2019-09-20 10:00:00 17.3 10 Sudoeste 33 Sudoeste 0 997.6 -0.4 92
2019-09-20 09:00:00 16 11 Sur 17 Sur 0 997.5 -0.6 97
2019-09-20 08:00:00 15.7 9 Sur 33 Oeste 0 997.7 -1.1 97
2019-09-20 07:00:00 16.1 13 Sudoeste 21 Sudoeste 0 998 -1.5 96
2019-09-20 06:00:00 16.1 10 Sudoeste 15 Sudoeste 0 998.1 -2.1 96
2019-09-20 05:00:00 16 10 Sudoeste 15 Sudoeste 0 998.8 -1.6 97
2019-09-20 04:00:00 15.9 6 Sur 11 Sur 0 999.5 -1.5 96
2019-09-20 03:00:00 15.6 5 Sur 15 Sudeste 0 1000.2 -1.6 95
2019-09-20 02:00:00 15.6 13 Sudeste 15 Sudeste 0 1000.4 -1.7 96
2019-09-20 01:00:00 15.7 13 Sudeste 21 Este 0 1001 -1 95
2019-09-20 00:00:00 15.7 16 Sudeste 21 Sudeste 0 1001.8 0 95
2019-09-19 23:00:00 15.8 12 Sudeste 17 Sudeste 0 1002.1 0.5 93
2019-09-19 22:00:00 17 13 Este 26 Este 0 1002 0.4 90
2019-09-19 21:00:00 17.7 19 Este 32 Este 0 1001.8 -0.1 87
2019-09-19 20:00:00 18.6 20 Este 33 Este 0 1001.6 -0.5 82
2019-09-19 19:00:00 20.3 18 Este 32 Este 0 1001.6 -0.9 76
2019-09-19 18:00:00 20.9 17 Este 33 Este 0 1001.9 -1 73
2019-09-19 17:00:00 21.3 20 Este 35 Este 0 1002.1 -1.4 73
2019-09-19 16:00:00 21.6 19 Este 33 Este 0 1002.5 -1.2 73
2019-09-19 15:00:00 22.1 15 Este 32 Este 0 1002.9 -1.2 72
2019-09-19 14:00:00 22.2 18 Este 32 Este 0 1003.5 -0.8 72
2019-09-19 13:00:00 21.9 17 Este 30 Este 0 1003.7 -0.3 72
2019-09-19 12:00:00 21.4 14 Este 24 Nordeste 0 1004.1 0.4 75
2019-09-19 11:00:00 20.5 15 Sudeste 26 Sudeste 0 1004.3 0.8 79
2019-09-19 10:00:00 19.1 11 Sudeste 17 Sudeste 0 1004 0.8 86
2019-09-19 09:00:00 16.1 6 Sudeste 11 Sudeste 0 1003.7 0.4 98
2019-09-19 08:00:00 15 11 Sudeste 17 Sudeste 0 1003.5 -0.2 98
2019-09-19 07:00:00 15.3 13 Sudeste 18 Este 0 1003.2 -0.6 98
2019-09-19 06:00:00 16.7 13 Este 21 Este 0 1003.3 -0.9 98
2019-09-19 05:00:00 -- 8 Sudeste 9 Sudeste 0 1003.7 -0.8 --
2019-09-19 04:00:00 17 8 Este 15 Sudeste 0 1003.8 -0.9 95
2019-09-19 03:00:00 17.4 12 Sudeste 21 Sudeste 0 1004.2 -0.5 96
2019-09-19 02:00:00 17.3 13 Este 24 Este 0 1004.5 0 96
2019-09-19 01:00:00 17.4 10 Este 22 Este 0 1004.7 0.4 96
2019-09-19 00:00:00 18.2 8 Este 18 Sudeste 0 1004.7 0.9 91
2019-09-18 23:00:00 18.5 11 Este 24 Este 0 1004.5 1 90
2019-09-18 22:00:00 18.6 13 Este 24 Este 0 1004.3 1.1 90
2019-09-18 21:00:00 18.9 15 Este 28 Este 0 1003.8 0.7 89
2019-09-18 20:00:00 19.3 11 Este 24 Nordeste 0 1003.5 0.5 88
2019-09-18 19:00:00 19.6 14 Este 32 Este 0 1003.2 0 87
2019-09-18 18:00:00 19.8 18 Este 37 Este 0 1003.1 -0.1 87
2019-09-18 17:00:00 21.1 19 Este 33 Este 0 1003 -0.3 83
2019-09-18 16:00:00 20.8 18 Este 33 Este 0 1003.2 -0.2 86
2019-09-18 15:00:00 22.2 17 Este 28 Nordeste 0 1003.2 0 83
2019-09-18 14:00:00 22 13 Este 21 Nordeste 0 1003.3 0.1 85
2019-09-18 13:00:00 21.3 9 Norte 15 Norte 0 1003.4 0.5 83
2019-09-18 12:00:00 20.9 8 Sudoeste 24 Sudoeste 0 1003.2 1 85
2019-09-18 11:00:00 17.8 16 Sur 24 Sudoeste 0 1003.2 1.6 93
2019-09-18 10:00:00 17.7 9 Sudoeste 24 Sur 0 1002.9 1.5 94
2019-09-18 09:00:00 17.2 12 Sudoeste 17 Sudoeste 0 1002.2 1 95
2019-09-18 08:00:00 17.2 6 Sudoeste 26 Sur 0 1001.6 0.6 97
2019-09-18 07:00:00 17.1 11 Sudoeste 17 Sudoeste 0 1001.4 0.1 98
2019-09-18 06:00:00 16.9 8 Sur 13 Sudoeste 0 1001.2 -0.8 99
2019-09-18 05:00:00 16.7 9 Sudoeste 15 Sudoeste 0 1001 -1.2 99
2019-09-18 04:00:00 16.5 6 Sur 9 Sur 0 1001.3 -1.4 98
2019-09-18 03:00:00 17.4 2 Sudeste 11 Sur 0 1002 -0.6 97
2019-09-18 02:00:00 18 9 Sur 15 Sur 0 1002.2 -0.4 98
2019-09-18 01:00:00 18.6 8 Sur 13 Sur 0 1002.7 -0.2 97
2019-09-18 00:00:00 18.6 7 Sudeste 11 Sudeste 0 1002.6 -0.4 97
2019-09-17 23:00:00 19 9 Sudeste 17 Sudeste 0 1002.6 0.3 98
2019-09-17 22:00:00 19.2 11 Sudeste 15 Este 0.2 1002.9 0.5 98
2019-09-17 21:00:00 19.8 4 Sudeste 13 Sudeste 0 1003 1 94